Time;durP1;ratioP1;P1;durP2;ratioP2;P2;SDS_P1;SDS_P2;PMS_P1;PMS_P2;Temp;Humidity;BMP_temperature;BMP_pressure;BME280_temperature;BME280_humidity;BME280_pressure;Samples;Min_cycle;Max_cycle;Signal;HPM_P1;HPM_P2
2022/06/02 00:02:02;;;;;;;5.03;2.77;;;15.70;99.50;;;;;;5072250;28;20524;-65
2022/06/02 00:04:35;;;;;;;4.50;2.40;;;15.50;99.40;;;;;;5075014;28;20835;-64
2022/06/02 00:07:07;;;;;;;3.60;2.50;;;15.30;99.90;;;;;;5075927;28;20518;-65
2022/06/02 00:09:57;;;;;;;3.23;2.40;;;15.20;99.90;;;;;;5075799;28;20464;-65
2022/06/02 00:12:30;;;;;;;3.20;2.53;;;15.20;99.90;;;;;;5075792;28;20424;-65
2022/06/02 00:15:09;;;;;;;2.80;2.23;;;15.20;99.90;;;;;;5075701;28;20502;-65
2022/06/02 00:17:45;;;;;;;3.70;2.50;;;15.20;99.90;;;;;;5075585;28;20486;-65
2022/06/02 00:20:17;;;;;;;3.67;2.60;;;15.20;99.90;;;;;;5075293;28;20499;-65
2022/06/02 00:22:56;;;;;;;4.33;2.47;;;15.30;99.90;;;;;;5075120;28;20428;-64
2022/06/02 00:25:41;;;;;;;4.60;2.83;;;15.30;99.90;;;;;;5075506;28;20440;-65
2022/06/02 00:28:22;;;;;;;2.90;2.07;;;15.30;99.90;;;;;;5075494;28;20514;-65
2022/06/02 00:30:57;;;;;;;3.10;2.20;;;15.30;99.90;;;;;;5075432;28;20427;-64
2022/06/02 00:33:30;;;;;;;3.30;2.23;;;15.30;99.90;;;;;;5075411;28;20464;-65
2022/06/02 00:36:00;;;;;;;2.70;2.00;;;15.30;99.90;;;;;;5075362;28;20507;-65
2022/06/02 00:38:29;;;;;;;3.73;2.60;;;15.20;99.90;;;;;;5075234;28;20484;-65
2022/06/02 00:41:06;;;;;;;3.60;2.73;;;15.20;99.90;;;;;;5075090;28;20523;-64
2022/06/02 00:43:49;;;;;;;3.23;2.40;;;15.10;99.90;;;;;;5075286;28;20447;-65
2022/06/02 00:46:24;;;;;;;2.77;2.23;;;15.10;99.90;;;;;;5074908;28;20918;-65
2022/06/02 00:49:10;;;;;;;2.90;2.20;;;15.10;99.90;;;;;;5074948;28;20864;-64
2022/06/02 00:51:56;;;;;;;4.70;2.27;;;15.00;99.90;;;;;;5075240;28;20519;-65
2022/06/02 00:57:31;;;;;;;4.10;2.83;;;15.00;99.90;;;;;;5074335;28;20952;-65
2022/06/02 01:00:07;;;;;;;3.77;2.97;;;15.00;99.90;;;;;;5074580;28;20474;-64
2022/06/02 01:02:44;;;;;;;3.43;2.53;;;15.00;99.90;;;;;;5074893;28;20428;-64
2022/06/02 01:05:12;;;;;;;3.90;2.70;;;15.10;99.90;;;;;;5074638;28;20470;-65
2022/06/02 01:07:45;;;;;;;3.27;2.50;;;15.10;99.90;;;;;;5074700;28;20428;-65
2022/06/02 01:10:44;;;;;;;4.33;2.10;;;15.10;99.90;;;;;;5074562;28;20459;-65
2022/06/02 01:13:36;;;;;;;3.37;2.73;;;15.20;99.90;;;;;;5051315;28;20444;-64
2022/06/02 01:16:10;;;;;;;3.23;2.20;;;15.30;99.90;;;;;;5074615;28;20443;-65
2022/06/02 01:18:47;;;;;;;3.27;2.30;;;15.30;99.90;;;;;;5074434;28;20480;-65
2022/06/02 01:21:59;;;;;;;2.60;1.97;;;15.30;99.90;;;;;;5074232;28;20428;-65
2022/06/02 01:24:44;;;;;;;3.33;2.33;;;15.40;99.90;;;;;;5058905;28;20448;-64
2022/06/02 01:27:48;;;;;;;3.53;2.70;;;15.30;99.90;;;;;;5074257;28;20936;-65
2022/06/02 01:30:48;;;;;;;3.30;2.20;;;15.30;99.90;;;;;;5061228;28;20486;-65
2022/06/02 01:33:29;;;;;;;3.00;2.20;;;15.30;99.90;;;;;;5063691;28;20432;-65
2022/06/02 01:36:03;;;;;;;2.80;2.17;;;15.30;99.90;;;;;;5074233;28;20489;-64
2022/06/02 01:38:37;;;;;;;5.20;2.10;;;15.40;99.90;;;;;;5073830;28;20961;-64
2022/06/02 01:41:15;;;;;;;3.43;2.30;;;15.40;99.90;;;;;;5074169;28;20756;-64
2022/06/02 01:43:54;;;;;;;4.70;2.60;;;15.30;99.90;;;;;;5073939;28;20440;-65
2022/06/02 01:46:38;;;;;;;3.40;2.07;;;15.30;99.90;;;;;;5073847;28;20508;-65
2022/06/02 01:49:20;;;;;;;4.40;2.10;;;15.30;99.90;;;;;;5073723;28;20550;-66
2022/06/02 01:52:00;;;;;;;5.43;2.60;;;15.30;99.90;;;;;;5073831;28;20485;-65
2022/06/02 01:54:40;;;;;;;5.13;2.30;;;15.30;99.90;;;;;;5073809;28;20515;-64
2022/06/02 01:57:22;;;;;;;2.97;2.27;;;15.30;99.90;;;;;;5073585;28;20427;-65
2022/06/02 02:00:01;;;;;;;3.20;2.43;;;15.30;99.90;;;;;;5073778;28;20507;-65
2022/06/02 02:02:38;;;;;;;3.23;1.80;;;15.30;99.90;;;;;;5073667;28;20427;-65
2022/06/02 02:05:23;;;;;;;2.80;2.30;;;15.20;99.90;;;;;;5073682;28;20527;-66
2022/06/02 02:08:19;;;;;;;4.40;2.73;;;15.10;99.90;;;;;;5073737;28;20515;-65
2022/06/02 02:10:56;;;;;;;3.50;2.50;;;15.10;99.90;;;;;;5064851;28;20436;-65
2022/06/02 02:13:35;;;;;;;5.60;2.70;;;15.10;99.90;;;;;;5073536;28;20530;-66
2022/06/02 02:16:19;;;;;;;3.30;2.20;;;15.10;99.90;;;;;;5073229;28;20485;-65
2022/06/02 02:18:59;;;;;;;3.50;2.10;;;15.10;99.90;;;;;;5073372;28;20507;-65
2022/06/02 02:21:37;;;;;;;3.43;1.97;;;15.10;99.90;;;;;;5073306;28;20435;-65
2022/06/02 02:24:29;;;;;;;2.40;2.03;;;15.10;99.90;;;;;;5073079;28;20515;-66
2022/06/02 02:27:03;;;;;;;3.50;1.90;;;15.20;99.90;;;;;;5072623;28;20993;-65
2022/06/02 02:29:40;;;;;;;4.60;2.70;;;15.20;99.90;;;;;;5072959;28;20428;-65
2022/06/02 02:32:17;;;;;;;3.43;1.93;;;15.20;99.90;;;;;;5073168;28;20431;-64
2022/06/02 02:34:56;;;;;;;5.00;1.90;;;15.20;99.90;;;;;;5072782;28;20952;-69
2022/06/02 02:37:30;;;;;;;5.40;1.93;;;15.20;99.90;;;;;;5072971;28;20464;-65
2022/06/02 02:40:04;;;;;;;3.50;2.03;;;15.20;99.90;;;;;;5072737;28;20507;-64
2022/06/02 02:42:36;;;;;;;3.10;2.33;;;15.30;99.90;;;;;;5073175;28;20971;-64
2022/06/02 02:45:16;;;;;;;4.37;2.03;;;15.30;99.90;;;;;;5073314;28;20469;-64
2022/06/02 02:47:48;;;;;;;3.40;2.40;;;15.20;99.90;;;;;;5072801;28;20495;-65
2022/06/02 02:50:20;;;;;;;3.73;2.20;;;15.30;99.90;;;;;;5072959;28;20514;-65
2022/06/02 02:53:00;;;;;;;4.27;2.30;;;15.30;99.90;;;;;;5072982;28;20519;-65
2022/06/02 02:55:33;;;;;;;2.70;2.00;;;15.30;99.90;;;;;;5073093;28;20427;-66
2022/06/02 02:58:07;;;;;;;3.93;2.33;;;15.30;99.90;;;;;;5072717;28;20562;-65
2022/06/02 03:00:41;;;;;;;4.00;2.60;;;15.30;99.90;;;;;;5072866;28;20921;-66
2022/06/02 03:03:16;;;;;;;3.07;1.77;;;15.30;99.90;;;;;;5072989;28;20490;-65
2022/06/02 03:06:00;;;;;;;3.40;2.00;;;15.30;99.90;;;;;;5072885;28;20914;-65
2022/06/02 03:08:38;;;;;;;2.87;2.30;;;15.30;99.90;;;;;;5072827;28;20424;-64
2022/06/02 03:11:18;;;;;;;2.50;2.20;;;15.30;99.90;;;;;;5072710;28;20468;-66
2022/06/02 03:13:54;;;;;;;3.47;2.60;;;15.30;99.90;;;;;;5072857;28;20825;-65
2022/06/02 03:16:22;;;;;;;2.83;2.17;;;15.30;99.90;;;;;;5072425;28;20921;-65
2022/06/02 03:19:01;;;;;;;4.40;2.83;;;15.30;99.90;;;;;;5072650;28;20487;-65
2022/06/02 03:21:34;;;;;;;4.03;2.30;;;15.30;99.90;;;;;;5072764;28;20515;-65
2022/06/02 03:24:35;;;;;;;5.03;2.40;;;15.30;99.90;;;;;;5072717;28;20497;-65
2022/06/02 03:27:20;;;;;;;6.17;2.70;;;15.40;99.90;;;;;;5072575;28;20448;-65
2022/06/02 03:30:01;;;;;;;5.23;3.10;;;15.40;99.90;;;;;;5072681;28;20527;-65
2022/06/02 03:32:41;;;;;;;2.70;2.27;;;15.40;99.90;;;;;;5072558;28;21226;-65
2022/06/02 03:35:22;;;;;;;3.10;2.13;;;15.40;99.90;;;;;;5072594;28;20431;-65
2022/06/02 03:38:00;;;;;;;3.47;3.00;;;15.40;99.90;;;;;;5072739;28;20480;-65
2022/06/02 03:40:35;;;;;;;6.80;2.90;;;15.40;99.90;;;;;;5076364;28;20463;-64
2022/06/02 03:43:13;;;;;;;3.80;2.73;;;15.40;99.90;;;;;;5074148;28;20796;-66
2022/06/02 03:45:58;;;;;;;6.17;3.00;;;15.30;99.90;;;;;;5075292;28;20435;-65
2022/06/02 03:48:44;;;;;;;4.17;2.90;;;15.40;99.90;;;;;;5075511;28;20501;-65
2022/06/02 03:51:22;;;;;;;4.40;2.70;;;15.40;99.90;;;;;;5070849;28;20479;-65
2022/06/02 03:54:21;;;;;;;3.80;2.60;;;15.40;99.90;;;;;;5073815;28;20840;-65
2022/06/02 03:57:05;;;;;;;3.23;2.60;;;15.40;99.90;;;;;;5063604;28;20452;-65
2022/06/02 03:59:55;;;;;;;5.83;2.70;;;15.50;99.90;;;;;;5071432;28;20479;-64
2022/06/02 04:02:30;;;;;;;5.67;2.40;;;15.50;99.90;;;;;;5071587;28;20452;-64
2022/06/02 04:05:20;;;;;;;3.57;2.47;;;15.50;99.90;;;;;;5073301;28;20500;-65
2022/06/02 04:08:01;;;;;;;4.20;2.60;;;15.50;99.90;;;;;;5073714;28;20494;-66
2022/06/02 04:10:37;;;;;;;7.43;2.40;;;15.50;99.90;;;;;;5071400;28;20439;-65
2022/06/02 04:13:45;;;;;;;4.30;2.60;;;15.40;99.90;;;;;;5073495;28;20435;-65
2022/06/02 04:16:49;;;;;;;2.80;2.23;;;15.40;99.90;;;;;;5070947;28;20469;-65
2022/06/02 04:22:33;;;;;;;3.77;2.20;;;15.40;99.90;;;;;;5042230;28;20431;-65
2022/06/02 04:25:15;;;;;;;5.10;2.70;;;15.40;99.90;;;;;;5071385;28;20435;-65
2022/06/02 04:27:51;;;;;;;4.80;2.27;;;15.50;99.90;;;;;;5070379;28;20629;-65
2022/06/02 04:30:22;;;;;;;4.63;3.63;;;15.50;99.90;;;;;;5072279;28;20450;-65
2022/06/02 04:33:01;;;;;;;3.80;3.00;;;15.50;99.90;;;;;;5073294;28;20490;-65
2022/06/02 04:35:37;;;;;;;5.10;3.07;;;15.60;99.90;;;;;;5072725;28;20447;-65
2022/06/02 04:38:15;;;;;;;5.40;4.23;;;15.60;99.90;;;;;;5073494;28;20442;-64
2022/06/02 04:40:52;;;;;;;9.13;4.37;;;15.70;99.90;;;;;;5072859;28;20443;-66
2022/06/02 04:43:36;;;;;;;4.13;3.10;;;15.70;99.90;;;;;;5073140;28;20443;-65
2022/06/02 04:46:17;;;;;;;3.27;2.80;;;15.70;99.90;;;;;;5069264;28;20535;-65
2022/06/02 04:48:52;;;;;;;4.83;2.90;;;15.80;99.90;;;;;;5071880;28;20514;-66
2022/06/02 04:51:30;;;;;;;3.60;3.10;;;15.80;99.90;;;;;;5072753;28;20564;-65
2022/06/02 04:54:10;;;;;;;3.17;2.47;;;15.90;99.90;;;;;;5071837;28;21482;-65
2022/06/02 04:56:45;;;;;;;3.37;3.07;;;15.90;99.90;;;;;;5072569;28;20526;-69
2022/06/02 04:59:17;;;;;;;7.67;4.00;;;16.00;99.90;;;;;;5072474;28;20510;-65
2022/06/02 05:02:01;;;;;;;13.47;10.17;;;16.10;99.90;;;;;;5072481;28;21268;-65
2022/06/02 05:04:40;;;;;;;14.53;11.53;;;16.20;99.90;;;;;;5071729;28;20462;-65
2022/06/02 05:07:25;;;;;;;11.47;8.10;;;16.30;99.90;;;;;;5072328;28;20834;-65
2022/06/02 05:10:02;;;;;;;12.77;7.17;;;16.40;99.90;;;;;;5070445;28;20438;-65
2022/06/02 05:12:51;;;;;;;5.20;3.50;;;16.50;99.90;;;;;;5068007;28;20489;-65
2022/06/02 05:15:43;;;;;;;6.70;4.80;;;16.60;99.90;;;;;;5071946;28;20440;-65
2022/06/02 05:18:43;;;;;;;7.17;4.90;;;16.70;99.90;;;;;;5070982;28;20482;-66
2022/06/02 05:21:40;;;;;;;6.80;3.03;;;16.70;99.50;;;;;;5054292;28;20452;-72
2022/06/02 05:24:36;;;;;;;4.20;3.00;;;16.50;99.30;;;;;;5071195;28;20464;-65
2022/06/02 05:27:37;;;;;;;3.67;2.87;;;16.50;99.40;;;;;;5046435;28;20771;-65
2022/06/02 05:30:25;;;;;;;5.37;3.03;;;16.30;98.90;;;;;;5070102;28;20932;-65
2022/06/02 05:33:21;;;;;;;5.53;3.47;;;16.20;99.70;;;;;;5068814;28;20497;-64
2022/06/02 05:36:09;;;;;;;24.33;17.07;;;16.30;99.90;;;;;;5071335;28;20519;-65
2022/06/02 05:38:55;;;;;;;6.83;5.40;;;16.30;99.90;;;;;;5072714;28;20853;-65
2022/06/02 05:41:34;;;;;;;3.50;2.83;;;16.40;99.90;;;;;;5068742;28;20497;-65
2022/06/02 05:44:13;;;;;;;4.77;3.53;;;16.50;99.90;;;;;;5070520;28;20443;-65
2022/06/02 05:47:02;;;;;;;5.33;4.73;;;16.60;99.90;;;;;;5068614;28;20533;-66
2022/06/02 05:49:39;;;;;;;5.40;4.20;;;16.60;99.90;;;;;;5071933;28;20494;-65
2022/06/02 05:52:16;;;;;;;5.33;4.43;;;16.60;99.90;;;;;;5069703;28;20442;-65
2022/06/02 05:54:54;;;;;;;4.80;4.00;;;16.70;99.90;;;;;;5073979;28;20534;-65
2022/06/02 05:57:34;;;;;;;3.97;3.10;;;16.90;99.90;;;;;;5073625;28;20969;-65
2022/06/02 06:00:14;;;;;;;3.50;2.60;;;17.10;99.90;;;;;;5073248;28;20987;-65
2022/06/02 06:03:14;;;;;;;4.10;2.83;;;17.30;99.90;;;;;;5073890;28;20534;-65
2022/06/02 06:05:45;;;;;;;4.70;3.50;;;17.40;99.40;;;;;;5072050;28;20914;-65
2022/06/02 06:08:26;;;;;;;3.90;3.30;;;17.40;98.50;;;;;;5073341;28;20526;-65
2022/06/02 06:11:08;;;;;;;3.40;2.43;;;17.50;98.90;;;;;;5073733;28;20446;-65
2022/06/02 06:13:52;;;;;;;4.03;2.53;;;17.60;98.60;;;;;;5073879;28;20516;-66
2022/06/02 06:16:25;;;;;;;4.63;3.10;;;17.70;97.30;;;;;;5073596;28;20789;-65
2022/06/02 06:19:14;;;;;;;4.27;3.50;;;17.70;97.20;;;;;;5073615;28;20558;-68
2022/06/02 06:21:55;;;;;;;5.07;3.50;;;17.80;97.40;;;;;;5073633;28;20436;-65
2022/06/02 06:24:38;;;;;;;4.83;3.67;;;17.90;96.90;;;;;;5073568;28;20443;-65
2022/06/02 06:27:16;;;;;;;3.47;3.00;;;17.90;96.70;;;;;;5073438;28;20530;-65
2022/06/02 06:29:58;;;;;;;5.50;3.20;;;17.90;96.30;;;;;;5073453;28;20432;-66
2022/06/02 06:32:37;;;;;;;11.00;8.77;;;18.00;96.00;;;;;;5073440;28;20471;-66
2022/06/02 06:35:22;;;;;;;7.13;6.00;;;18.10;96.00;;;;;;5073420;28;20641;-65
2022/06/02 06:38:12;;;;;;;6.33;3.80;;;18.10;96.20;;;;;;5071613;28;20497;-65
2022/06/02 06:40:59;;;;;;;3.47;2.73;;;18.20;96.90;;;;;;5073425;28;20896;-66
2022/06/02 06:43:43;;;;;;;4.17;3.00;;;18.30;96.40;;;;;;5073334;28;20531;-66
2022/06/02 06:46:17;;;;;;;8.47;3.60;;;18.40;95.50;;;;;;5073147;28;20479;-65
2022/06/02 06:48:50;;;;;;;4.97;3.00;;;18.50;94.80;;;;;;5073125;28;20493;-65
2022/06/02 06:51:27;;;;;;;6.10;4.83;;;18.70;94.40;;;;;;5072755;28;20865;-65
2022/06/02 06:54:04;;;;;;;4.63;4.13;;;19.00;94.80;;;;;;5073208;28;20921;-65
2022/06/02 06:56:36;;;;;;;5.37;2.90;;;19.20;93.60;;;;;;5072817;28;21000;-65
2022/06/02 06:59:17;;;;;;;3.30;2.53;;;19.30;93.40;;;;;;5073054;28;20483;-66
2022/06/02 07:01:51;;;;;;;4.60;3.27;;;19.40;92.60;;;;;;5073059;28;20823;-65
2022/06/02 07:04:37;;;;;;;7.63;6.83;;;19.50;91.70;;;;;;5073098;28;20842;-65
2022/06/02 07:07:13;;;;;;;7.70;6.03;;;19.60;90.80;;;;;;5073201;28;20562;-65
2022/06/02 07:09:50;;;;;;;5.87;3.77;;;19.60;90.20;;;;;;5073169;28;20515;-66
2022/06/02 07:15:16;;;;;;;4.20;3.23;;;19.80;90.40;;;;;;5076793;28;20511;-67
2022/06/02 07:17:51;;;;;;;3.30;2.80;;;20.10;90.20;;;;;;5077208;28;20436;-66
2022/06/02 07:20:25;;;;;;;4.23;2.47;;;20.20;90.60;;;;;;5076962;28;20892;-65
2022/06/02 07:23:05;;;;;;;4.03;3.03;;;20.20;90.10;;;;;;5076596;28;20522;-65
2022/06/02 07:25:39;;;;;;;4.30;2.90;;;20.30;90.40;;;;;;5077044;28;20435;-65
2022/06/02 07:28:12;;;;;;;3.87;2.90;;;20.40;90.60;;;;;;5076861;28;20519;-66
2022/06/02 07:30:53;;;;;;;3.93;2.90;;;20.40;86.90;;;;;;5076796;28;20440;-66
2022/06/02 07:33:44;;;;;;;3.43;2.90;;;20.40;86.10;;;;;;5076445;28;20440;-66
2022/06/02 07:36:34;;;;;;;4.40;3.10;;;20.40;86.10;;;;;;5076651;28;20464;-65
2022/06/02 07:39:35;;;;;;;4.00;2.43;;;20.50;85.00;;;;;;5076660;28;20472;-65
2022/06/02 07:42:47;;;;;;;6.63;2.87;;;20.80;85.80;;;;;;5076948;28;20470;-65
2022/06/02 07:45:36;;;;;;;6.40;3.10;;;21.10;79.80;;;;;;5052272;28;20431;-66
2022/06/02 07:48:28;;;;;;;3.50;2.80;;;21.30;79.20;;;;;;5076263;28;20477;-65
2022/06/02 07:51:07;;;;;;;2.80;2.23;;;21.30;80.00;;;;;;5075848;28;20511;-65
2022/06/02 07:53:55;;;;;;;3.73;2.97;;;21.50;80.70;;;;;;5076501;28;20442;-66
2022/06/02 07:56:32;;;;;;;3.97;2.30;;;21.70;79.90;;;;;;5076130;28;20443;-65
2022/06/02 07:59:06;;;;;;;6.40;2.60;;;21.80;75.10;;;;;;5076142;28;20479;-65
2022/06/02 08:02:16;;;;;;;5.33;3.00;;;22.00;77.50;;;;;;5076234;28;21013;-65
2022/06/02 08:04:58;;;;;;;4.17;2.13;;;22.40;77.10;;;;;;5076085;28;20531;-66
2022/06/02 08:07:33;;;;;;;2.87;1.97;;;22.80;78.90;;;;;;5075829;28;20542;-65
2022/06/02 08:10:07;;;;;;;3.30;1.60;;;23.00;73.40;;;;;;5075905;28;20435;-66
2022/06/02 08:12:41;;;;;;;3.30;1.97;;;23.00;65.80;;;;;;5076269;28;20439;-66
2022/06/02 08:15:29;;;;;;;3.03;2.20;;;22.90;66.10;;;;;;5075850;28;20523;-66
2022/06/02 08:18:00;;;;;;;6.00;2.50;;;22.90;68.60;;;;;;5076015;28;20454;-66
2022/06/02 08:20:49;;;;;;;5.00;2.20;;;23.10;69.10;;;;;;5075855;28;20565;-66
2022/06/02 08:23:45;;;;;;;2.90;2.00;;;23.30;68.80;;;;;;5075390;28;20518;-66
2022/06/02 08:26:15;;;;;;;4.13;2.13;;;23.50;66.20;;;;;;5075565;28;20524;-66
2022/06/02 08:28:55;;;;;;;3.57;2.10;;;23.60;63.30;;;;;;5075448;28;20438;-66
2022/06/02 08:31:49;;;;;;;4.27;2.17;;;23.80;65.20;;;;;;5075509;28;20523;-65
2022/06/02 08:34:22;;;;;;;3.60;2.00;;;23.80;61.80;;;;;;5074023;28;20448;-66
2022/06/02 08:37:06;;;;;;;3.37;2.43;;;23.70;61.60;;;;;;5075369;28;20432;-66
2022/06/02 08:40:10;;;;;;;5.70;2.67;;;24.00;62.60;;;;;;5075368;28;20559;-66
2022/06/02 08:43:15;;;;;;;4.47;2.50;;;24.20;63.20;;;;;;5075485;28;20441;-66
2022/06/02 08:46:22;;;;;;;4.47;2.03;;;24.60;63.30;;;;;;5075224;28;20522;-65
2022/06/02 08:49:17;;;;;;;3.33;1.70;;;24.80;58.80;;;;;;5067654;28;20560;-66
2022/06/02 08:52:22;;;;;;;2.83;1.53;;;24.70;54.60;;;;;;5066305;28;20451;-66
2022/06/02 08:55:36;;;;;;;2.77;1.77;;;24.60;53.30;;;;;;5075217;28;20922;-65
2022/06/02 08:58:32;;;;;;;5.17;1.90;;;24.70;56.40;;;;;;5075227;28;20463;-65
2022/06/02 09:01:11;;;;;;;3.30;1.90;;;24.70;55.50;;;;;;5074821;28;20890;-66
2022/06/02 09:04:31;;;;;;;2.97;1.70;;;24.70;55.70;;;;;;5074824;28;20442;-66
2022/06/02 09:07:43;;;;;;;2.70;1.60;;;24.80;56.20;;;;;;5075002;28;20842;-66
2022/06/02 09:10:51;;;;;;;2.63;1.50;;;25.20;57.00;;;;;;5055399;28;20435;-66
2022/06/02 09:14:09;;;;;;;3.70;2.13;;;25.20;56.10;;;;;;5074944;28;20483;-65
2022/06/02 09:16:55;;;;;;;4.33;1.60;;;25.00;53.30;;;;;;5074743;28;20438;-66
2022/06/02 09:19:47;;;;;;;2.60;1.50;;;24.90;52.20;;;;;;5074672;28;20537;-66
2022/06/02 09:22:34;;;;;;;2.57;1.70;;;24.80;53.50;;;;;;5074708;28;20437;-66
2022/06/02 09:25:21;;;;;;;2.20;1.30;;;24.90;54.50;;;;;;5074646;28;20496;-65
2022/06/02 09:28:06;;;;;;;2.23;1.40;;;25.10;52.70;;;;;;5074475;28;20470;-65
2022/06/02 09:30:54;;;;;;;2.63;1.27;;;25.30;52.00;;;;;;5074576;28;20438;-65
2022/06/02 09:33:45;;;;;;;3.00;1.53;;;25.30;53.60;;;;;;5074443;28;20523;-66
2022/06/02 09:36:47;;;;;;;3.90;1.57;;;25.20;54.00;;;;;;5074493;28;20441;-66
2022/06/02 09:39:33;;;;;;;2.60;1.43;;;25.10;52.90;;;;;;5051122;28;20442;-66
2022/06/02 09:42:23;;;;;;;3.60;1.53;;;25.10;53.90;;;;;;5074390;28;20468;-66
2022/06/02 09:45:04;;;;;;;3.10;2.00;;;25.10;52.10;;;;;;5073676;28;20466;-66
2022/06/02 09:48:06;;;;;;;3.13;1.80;;;25.00;51.00;;;;;;5073686;28;20497;-66
2022/06/02 09:50:57;;;;;;;2.73;1.83;;;25.20;53.40;;;;;;5052046;28;20500;-66
2022/06/02 09:53:44;;;;;;;2.10;1.23;;;25.30;53.00;;;;;;5074045;28;20526;-66
2022/06/02 09:56:30;;;;;;;4.10;1.70;;;25.40;54.20;;;;;;5073685;28;20442;-65
2022/06/02 09:59:10;;;;;;;2.60;1.70;;;25.60;55.10;;;;;;5074015;28;20448;-66
2022/06/02 10:01:47;;;;;;;3.27;1.80;;;25.70;54.50;;;;;;5074159;28;20488;-66
2022/06/02 10:04:36;;;;;;;3.23;1.50;;;25.90;49.90;;;;;;5073821;28;20529;-66
2022/06/02 10:07:27;;;;;;;4.63;1.73;;;26.00;49.80;;;;;;5073786;28;20486;-65
2022/06/02 10:10:30;;;;;;;5.93;1.57;;;26.20;47.60;;;;;;5073655;28;20440;-65
2022/06/02 10:13:31;;;;;;;2.40;1.33;;;26.50;48.90;;;;;;5073733;28;20848;-66
2022/06/02 10:16:26;;;;;;;3.03;1.37;;;26.70;48.10;;;;;;5073071;28;20489;-66
2022/06/02 10:19:21;;;;;;;3.30;1.40;;;26.90;47.90;;;;;;5073324;28;20488;-66
2022/06/02 10:22:02;;;;;;;2.70;1.43;;;27.10;45.40;;;;;;5071778;28;20475;-67
2022/06/02 10:25:07;;;;;;;2.30;1.40;;;27.20;45.60;;;;;;5073535;28;20820;-66
2022/06/02 10:28:11;;;;;;;2.67;1.60;;;27.30;47.50;;;;;;5073261;28;20945;-66
2022/06/02 10:31:23;;;;;;;2.97;1.10;;;27.30;45.40;;;;;;5066937;28;20522;-66
2022/06/02 10:34:15;;;;;;;3.73;1.70;;;27.10;45.50;;;;;;5053918;28;20452;-66
2022/06/02 10:37:12;;;;;;;2.83;1.90;;;27.20;48.30;;;;;;5073354;28;20526;-66
2022/06/02 10:40:03;;;;;;;4.90;1.67;;;27.40;47.80;;;;;;5073416;28;20463;-66
2022/06/02 10:43:00;;;;;;;2.13;1.50;;;27.70;48.50;;;;;;5073433;28;20448;-66
2022/06/02 10:45:58;;;;;;;2.27;1.60;;;28.00;48.70;;;;;;5073093;28;20519;-66
2022/06/02 10:49:02;;;;;;;2.33;1.20;;;28.30;46.80;;;;;;5072605;28;20480;-66
2022/06/02 10:52:10;;;;;;;2.43;1.33;;;28.50;46.60;;;;;;5073167;28;20432;-66
2022/06/02 10:55:12;;;;;;;5.73;1.80;;;28.60;43.70;;;;;;5073180;28;20526;-67
2022/06/02 10:58:11;;;;;;;2.40;1.60;;;28.40;41.50;;;;;;5056337;28;20510;-67
2022/06/02 11:01:10;;;;;;;2.50;1.70;;;28.20;40.80;;;;;;5072867;28;20875;-66
2022/06/02 11:04:16;;;;;;;2.03;1.20;;;27.90;41.40;;;;;;5055035;28;20973;-66
2022/06/02 11:07:19;;;;;;;3.10;1.70;;;28.10;44.10;;;;;;5061255;28;20447;-66
2022/06/02 11:10:15;;;;;;;2.10;1.30;;;28.40;45.50;;;;;;5072932;28;20458;-66
2022/06/02 11:13:16;;;;;;;2.10;1.10;;;28.60;41.80;;;;;;5073040;28;20530;-66
2022/06/02 11:16:31;;;;;;;7.87;1.43;;;28.60;41.50;;;;;;5072800;28;20789;-66
2022/06/02 11:19:32;;;;;;;3.50;1.20;;;28.70;41.20;;;;;;5029946;28;20440;-66
2022/06/02 11:22:27;;;;;;;3.63;1.40;;;28.50;40.90;;;;;;5072774;28;21042;-66
2022/06/02 11:25:26;;;;;;;3.50;1.43;;;28.50;42.40;;;;;;5072843;28;20479;-66
2022/06/02 11:28:34;;;;;;;4.43;1.73;;;28.50;43.10;;;;;;5072632;28;20519;-64
2022/06/02 11:31:24;;;;;;;2.60;1.60;;;28.60;43.20;;;;;;5071624;28;20527;-64
2022/06/02 11:34:22;;;;;;;3.30;1.73;;;28.80;43.30;;;;;;5072610;28;20447;-64
2022/06/02 11:37:23;;;;;;;2.40;1.40;;;28.60;42.00;;;;;;5062140;28;20790;-64
2022/06/02 11:40:15;;;;;;;2.73;1.40;;;28.70;41.90;;;;;;5072144;28;20968;-64
2022/06/02 11:43:05;;;;;;;3.23;1.70;;;28.60;39.50;;;;;;5072734;28;20448;-64
2022/06/02 11:45:56;;;;;;;2.50;1.40;;;28.50;40.50;;;;;;5072784;28;20432;-64
2022/06/02 11:48:39;;;;;;;2.10;1.10;;;28.30;40.70;;;;;;5063366;28;20559;-64
2022/06/02 11:51:43;;;;;;;2.90;1.50;;;28.00;42.10;;;;;;5072692;28;20984;-64
2022/06/02 11:54:42;;;;;;;3.20;2.07;;;27.70;41.40;;;;;;5071992;28;20468;-64
2022/06/02 12:01:06;;;;;;;2.10;1.13;;;27.10;41.70;;;;;;5072958;28;20799;-64
2022/06/02 12:04:21;;;;;;;2.30;1.43;;;26.70;42.70;;;;;;5076410;28;20439;-64
2022/06/02 12:07:26;;;;;;;2.77;1.60;;;26.50;45.90;;;;;;5076047;28;20440;-64
2022/06/02 12:10:25;;;;;;;2.97;1.70;;;26.50;48.50;;;;;;5072171;28;20531;-64
2022/06/02 12:13:08;;;;;;;2.13;1.33;;;26.70;49.80;;;;;;5076033;28;20489;-64
2022/06/02 12:16:07;;;;;;;4.43;1.93;;;26.70;50.20;;;;;;5076198;28;20830;-63
2022/06/02 12:18:44;;;;;;;3.13;1.73;;;26.80;50.20;;;;;;5065487;28;20456;-64
2022/06/02 12:21:37;;;;;;;3.67;2.10;;;27.00;48.70;;;;;;5075869;28;20574;-63
2022/06/02 12:24:20;;;;;;;2.53;1.57;;;27.30;49.40;;;;;;5076084;28;20478;-64
2022/06/02 12:27:12;;;;;;;3.63;1.83;;;27.40;50.10;;;;;;5075545;28;20452;-63
2022/06/02 12:30:02;;;;;;;3.37;1.70;;;27.20;47.70;;;;;;5066361;28;20440;-65
2022/06/02 12:32:50;;;;;;;2.37;1.50;;;26.90;48.30;;;;;;5075677;28;20440;-64
2022/06/02 12:35:35;;;;;;;2.93;1.97;;;26.50;49.00;;;;;;5075614;28;20444;-63
2022/06/02 12:38:18;;;;;;;4.40;1.90;;;26.20;48.80;;;;;;5075633;28;20783;-64
2022/06/02 12:41:01;;;;;;;2.60;1.43;;;26.00;49.40;;;;;;5075407;28;20479;-64
2022/06/02 12:44:02;;;;;;;3.07;2.00;;;25.90;49.40;;;;;;5075303;28;20470;-63
2022/06/02 12:46:52;;;;;;;2.80;1.87;;;25.90;49.40;;;;;;5075246;28;20858;-63
2022/06/02 12:49:45;;;;;;;3.47;2.00;;;26.10;51.60;;;;;;5074993;28;20464;-64
2022/06/02 12:52:40;;;;;;;4.60;2.30;;;26.30;53.30;;;;;;5067708;28;20443;-64
2022/06/02 12:55:25;;;;;;;4.33;1.93;;;26.20;52.30;;;;;;5071891;28;20542;-64
2022/06/02 12:58:27;;;;;;;2.90;1.80;;;26.10;52.80;;;;;;5075215;28;20778;-64
2022/06/02 13:01:13;;;;;;;3.63;2.00;;;26.00;53.00;;;;;;5075069;28;20921;-64
2022/06/02 13:04:21;;;;;;;3.50;2.50;;;25.90;51.40;;;;;;5075110;28;20496;-64
2022/06/02 13:07:25;;;;;;;3.50;2.00;;;25.80;54.20;;;;;;5054410;28;20539;-63
2022/06/02 13:10:21;;;;;;;3.10;2.13;;;25.70;53.10;;;;;;5074481;28;20440;-64
2022/06/02 13:13:28;;;;;;;4.63;1.93;;;25.60;54.50;;;;;;5075025;28;20820;-64
2022/06/02 13:16:37;;;;;;;3.80;2.27;;;25.50;54.20;;;;;;5074644;28;20443;-63
2022/06/02 13:19:30;;;;;;;3.13;1.70;;;25.40;53.20;;;;;;5074673;28;20443;-64
2022/06/02 13:22:41;;;;;;;4.63;1.97;;;25.40;53.80;;;;;;5074473;28;20509;-64
2022/06/02 13:25:50;;;;;;;3.57;1.70;;;25.30;52.60;;;;;;5064176;28;20447;-69
2022/06/02 13:28:50;;;;;;;4.73;2.20;;;25.20;53.20;;;;;;5049630;28;20794;-64
2022/06/02 13:31:54;;;;;;;3.03;1.87;;;25.10;53.60;;;;;;5038285;28;20482;-64
2022/06/02 13:34:53;;;;;;;3.73;2.10;;;25.10;54.20;;;;;;5074413;28;20848;-63
2022/06/02 13:37:46;;;;;;;2.33;1.70;;;25.00;54.80;;;;;;5074358;28;20916;-64
2022/06/02 13:40:22;;;;;;;2.47;1.90;;;24.90;55.30;;;;;;5074294;28;20443;-64
2022/06/02 13:43:36;;;;;;;3.17;1.70;;;24.90;54.40;;;;;;5074318;28;20450;-64
2022/06/02 13:46:34;;;;;;;6.77;1.30;;;24.90;54.50;;;;;;5031745;28;20838;-63
2022/06/02 13:49:49;;;;;;;2.40;1.60;;;24.90;53.70;;;;;;5074057;28;20480;-63
2022/06/02 13:59:05;;;;;;;2.70;2.00;;;24.80;53.90;;;;;;5152314;27;20880;-64
2022/06/02 14:01:48;;;;;;;4.70;1.83;;;24.80;53.80;;;;;;5151631;27;20517;-64
2022/06/02 14:04:48;;;;;;;3.10;1.90;;;24.80;54.20;;;;;;5152207;27;20443;-65
2022/06/02 14:07:50;;;;;;;3.40;2.00;;;24.80;53.10;;;;;;5145354;27;20430;-64
2022/06/02 14:10:40;;;;;;;3.03;1.70;;;24.70;50.70;;;;;;5151678;27;20986;-64
2022/06/02 14:13:50;;;;;;;3.40;1.50;;;24.60;51.20;;;;;;5148417;27;20515;-65
2022/06/02 14:16:31;;;;;;;4.43;1.90;;;24.50;52.00;;;;;;5141407;27;20526;-65
2022/06/02 14:19:32;;;;;;;2.60;1.60;;;24.50;52.10;;;;;;5151698;27;20447;-64
2022/06/02 14:22:11;;;;;;;5.50;1.63;;;24.50;52.10;;;;;;5124837;27;20453;-65
2022/06/02 14:24:53;;;;;;;3.60;1.70;;;24.50;52.50;;;;;;5151620;27;20522;-65
2022/06/02 14:27:29;;;;;;;2.87;1.70;;;24.40;53.10;;;;;;5151490;27;20438;-65
2022/06/02 14:30:05;;;;;;;2.10;1.50;;;24.40;53.20;;;;;;5151603;27;20532;-65
2022/06/02 14:32:42;;;;;;;2.20;1.40;;;24.50;53.10;;;;;;5151771;27;20439;-66
2022/06/02 14:35:26;;;;;;;5.40;1.93;;;24.40;53.30;;;;;;5151010;27;20837;-65
2022/06/02 14:38:02;;;;;;;3.40;2.00;;;24.40;52.30;;;;;;5151200;27;20512;-64
2022/06/02 14:40:33;;;;;;;2.83;1.90;;;24.40;52.70;;;;;;5151307;27;20435;-64
2022/06/02 14:43:29;;;;;;;3.73;2.07;;;24.50;53.20;;;;;;5151284;27;20450;-64
2022/06/02 14:46:28;;;;;;;3.63;1.90;;;24.50;53.70;;;;;;5150744;27;20521;-66